Flight Track Log - Related Links

Times and Time Zones

All times are in EDT time to prevent confusion due to time zone crossing. See the N43998 flight status page for this flight to view local times or setup timezone preferences in your user account.

Time Position Orientation Groundspeed Altitude Reporting Facility
EDT Latitude Longitude Course Direction KTS MPH feet Rate Location/Type
Fri 02:41:32 PM 32.5617 -87.1294 193° South 144 166 4,500  Level Atlanta Center
Fri 02:42:32 PM 32.5217 -87.1403 193° South 144 166 4,500 -50 Level Atlanta Center
Fri 02:43:32 PM 32.4797 -87.1486 190° South 144 166 4,400 -50 Descending Atlanta Center
Fri 02:44:32 PM 32.4419 -87.1619 197° South 144 166 4,400 50 Level Atlanta Center
Fri 02:45:32 PM 32.3997 -87.1706 190° South 144 166 4,500 50 Climbing Atlanta Center
Fri 02:46:32 PM 32.3619 -87.1814 194° South 144 166 4,500  Level Atlanta Center
Fri 02:47:32 PM 32.3219 -87.1922 193° South 144 166 4,500 -50 Level Atlanta Center
Fri 02:48:32 PM 32.2822 -87.2008 190° South 144 166 4,400  Descending Atlanta Center
Fri 02:49:32 PM 32.2422 -87.2092 190° South 144 166 4,500  Climbing Atlanta Center
Fri 02:50:32 PM 32.2003 -87.2222 195° South 144 166 4,400  Descending Atlanta Center
Fri 02:51:32 PM 32.1625 -87.2283 188° South 144 166 4,500  Climbing Atlanta Center
Fri 02:52:32 PM 32.1206 -87.2392 192° South 149 171 4,400 -50 Descending Atlanta Center
Fri 02:53:32 PM 32.0806 -87.2500 193° South 149 171 4,400 50 Level Atlanta Center
Fri 02:54:32 PM 32.0406 -87.2608 193° South 149 171 4,500  Climbing Atlanta Center
Fri 02:55:32 PM 32.0008 -87.2717 193° South 149 171 4,400 -50 Descending Atlanta Center
Fri 02:56:32 PM 31.9608 -87.2822 193° South 149 171 4,400 50 Level Atlanta Center
Fri 02:57:32 PM 31.9228 -87.2956 197° South 149 171 4,500  Climbing Atlanta Center
Fri 02:58:32 PM 31.8831 -87.3039 190° South 149 171 4,400  Descending Atlanta Center
Fri 02:59:32 PM 31.8389 -87.3097 186° South 149 171 4,500  Climbing Atlanta Center
Fri 03:00:32 PM 31.8011 -87.3206 194° South 149 171 4,400 -50 Descending Atlanta Center
Fri 03:01:32 PM 31.7653 -87.3364 201° Southwest 149 171 4,400 50 Level Atlanta Center
Fri 03:02:32 PM 31.7233 -87.3397 184° South 149 171 4,500 33 Climbing Atlanta Center
Fri 03:04:32 PM 31.6472 -87.3619 194° South 149 171 4,500 -33 Level Houston Center
Fri 03:05:34 PM 31.5994 -87.3708 189° South 146 168 4,400 -48 Descending Houston Center
Fri 03:06:36 PM 31.5589 -87.3797 191° South 147 169 4,400  Level Houston Center
Fri 03:07:38 PM 31.5186 -87.3892 191° South 147 169 4,400 48 Level Houston Center
Fri 03:08:41 PM 31.4792 -87.3994 193° South 147 169 4,500 48 Climbing Houston Center
Fri 03:09:43 PM 31.4400 -87.4100 193° South 146 168 4,500 97 Level Houston Center
Fri 03:10:45 PM 31.4022 -87.4203 193° South 143 165 4,700 290 Climbing Houston Center
Fri 03:11:47 PM 31.3561 -87.4311 191° South 141 162 5,100 242 Climbing Houston Center
Fri 03:12:49 PM 31.3169 -87.4408 192° South 142 163 5,200 242 Climbing Houston Center
Fri 03:13:51 PM 31.2789 -87.4503 192° South 141 162 5,600 387 Climbing Houston Center
Fri 03:14:53 PM 31.2425 -87.4583 191° South 138 159 6,000 339 Climbing Houston Center
Fri 03:15:55 PM 31.2050 -87.4647 188° South 136 157 6,300 242 Climbing Houston Center
Fri 03:16:57 PM 31.1681 -87.4717 189° South 135 155 6,500 97 Climbing Houston Center
Fri 03:17:59 PM 31.1208 -87.4831 192° South 139 160 6,500  Level Houston Center
Fri 03:19:02 PM 31.0794 -87.4925 191° South 144 166 6,500  Level Houston Center
Fri 03:20:04 PM 31.0381 -87.5033 193° South 148 170 6,500 48 Level Houston Center
Fri 03:21:06 PM 30.9942 -87.5136 191° South 156 180 6,600 48 Climbing Houston Center
Fri 03:22:08 PM 30.9511 -87.5258 194° South 159 183 6,600  Level Houston Center
Fri 03:23:10 PM 30.9089 -87.5361 192° South 156 180 6,600 -48 Level Houston Center
Fri 03:24:12 PM 30.8586 -87.5511 194° South 155 178 6,500 -97 Descending Houston Center

Login

Don't have an account? Register now (free) for customized features, flight alerts, and more!